FDX12G LOWI-LIPE
Flight info
| Callsign | FDX12G |
|---|---|
| Flight time | N/A |
| Altitude | 19000 |
| Route | BRENO M726 NAXAV M736 ADOSA M738 BENUS |
| Aircraft | B722/M-SDFGHRWY/C |
Departure
| Time | 2026-05-05 15:14 |
|---|---|
| Airport | Innsbruck Airport (LOWI) |
Arrival
| Time | N/A |
|---|---|
| Airport | Bologna Guglielmo Marconi Airport (LIPE) |
| Time | Latitude | Longitude | Altitude | Speed | Heading |
|---|---|---|---|---|---|
| 2026-05-05 14:58 | 47.25829 | 11.35055 | 1902 ft | 0 kts | 171° |
| 2026-05-05 15:03 | 47.25831 | 11.35055 | 1902 ft | 1 kts | 171° |
| 2026-05-05 15:03 | 47.25837 | 11.35054 | 1902 ft | 2 kts | 171° |
| 2026-05-05 15:04 | 47.25846 | 11.35051 | 1902 ft | 2 kts | 171° |
| 2026-05-05 15:04 | 47.25856 | 11.35049 | 1902 ft | 2 kts | 171° |
| 2026-05-05 15:04 | 47.25866 | 11.35047 | 1902 ft | 1 kts | 194° |
| 2026-05-05 15:04 | 47.25874 | 11.35053 | 1903 ft | 2 kts | 225° |
| 2026-05-05 15:05 | 47.25879 | 11.35066 | 1903 ft | 0 kts | 258° |
| 2026-05-05 15:05 | 47.25880 | 11.35072 | 1903 ft | 1 kts | 266° |
| 2026-05-05 15:05 | 47.25880 | 11.35073 | 1903 ft | 0 kts | 266° |
| 2026-05-05 15:07 | 47.25878 | 11.35060 | 1903 ft | 6 kts | 255° |
| 2026-05-05 15:07 | 47.25871 | 11.35019 | 1902 ft | 10 kts | 255° |
| 2026-05-05 15:08 | 47.25856 | 11.34966 | 1902 ft | 12 kts | 244° |
| 2026-05-05 15:08 | 47.25839 | 11.34907 | 1903 ft | 10 kts | 262° |
| 2026-05-05 15:08 | 47.25839 | 11.34859 | 1904 ft | 10 kts | 274° |
| 2026-05-05 15:08 | 47.25841 | 11.34814 | 1905 ft | 4 kts | 273° |
| 2026-05-05 15:09 | 47.25842 | 11.34798 | 1905 ft | 4 kts | 273° |
| 2026-05-05 15:09 | 47.25842 | 11.34775 | 1905 ft | 4 kts | 270° |
| 2026-05-05 15:09 | 47.25842 | 11.34754 | 1905 ft | 4 kts | 269° |
| 2026-05-05 15:09 | 47.25839 | 11.34705 | 1905 ft | 16 kts | 262° |
| 2026-05-05 15:10 | 47.25825 | 11.34563 | 1907 ft | 23 kts | 261° |
| 2026-05-05 15:10 | 47.25809 | 11.34417 | 1908 ft | 23 kts | 261° |
| 2026-05-05 15:10 | 47.25796 | 11.34293 | 1909 ft | 23 kts | 261° |
| 2026-05-05 15:10 | 47.25783 | 11.34165 | 1912 ft | 22 kts | 260° |
| 2026-05-05 15:11 | 47.25769 | 11.34037 | 1914 ft | 21 kts | 269° |
| 2026-05-05 15:11 | 47.25800 | 11.33898 | 1919 ft | 20 kts | 300° |
| 2026-05-05 15:11 | 47.25858 | 11.33778 | 1923 ft | 20 kts | 306° |
| 2026-05-05 15:11 | 47.25917 | 11.33677 | 1927 ft | 10 kts | 336° |
| 2026-05-05 15:12 | 47.25944 | 11.33703 | 1926 ft | 9 kts | 69° |
| 2026-05-05 15:12 | 47.25947 | 11.33720 | 1926 ft | 0 kts | 79° |
| 2026-05-05 15:12 | 47.25948 | 11.33728 | 1925 ft | 6 kts | 81° |
| 2026-05-05 15:12 | 47.25957 | 11.33821 | 1922 ft | 40 kts | 81° |
| 2026-05-05 15:13 | 47.25996 | 11.34191 | 1911 ft | 89 kts | 81° |
| 2026-05-05 15:13 | 47.26060 | 11.34812 | 1905 ft | 133 kts | 81° |
| 2026-05-05 15:13 | 47.26161 | 11.35727 | 1901 ft | 174 kts | 82° |
| 2026-05-05 15:13 | 47.26269 | 11.36784 | 2098 ft | 195 kts | 82° |
| 2026-05-05 15:14 | 47.26371 | 11.37799 | 2464 ft | 204 kts | 83° |
| 2026-05-05 15:14 | 47.26477 | 11.38885 | 2767 ft | 220 kts | 83° |
| 2026-05-05 15:14 | 47.26582 | 11.40035 | 3194 ft | 228 kts | 83° |
| 2026-05-05 15:14 | 47.26680 | 11.41160 | 3798 ft | 229 kts | 84° |
| 2026-05-05 15:15 | 47.26787 | 11.42416 | 4432 ft | 231 kts | 83° |
| 2026-05-05 15:15 | 47.26898 | 11.43687 | 5034 ft | 234 kts | 84° |
| 2026-05-05 15:15 | 47.27016 | 11.45076 | 5141 ft | 259 kts | 85° |
| 2026-05-05 15:15 | 47.27135 | 11.46530 | 4778 ft | 292 kts | 85° |